sensor_id;sensor_type;location;lat;lon;timestamp;P1;durP1;ratioP1;P2;durP2;ratioP2
55067;SDS011;40965;52.368;9.712;2024-03-08T00:00:54;23.15;;;14.60;;
55067;SDS011;40965;52.368;9.712;2024-03-08T00:03:21;24.48;;;13.52;;
55067;SDS011;40965;52.368;9.712;2024-03-08T00:05:48;23.65;;;12.98;;
55067;SDS011;40965;52.368;9.712;2024-03-08T00:08:14;24.10;;;13.52;;
55067;SDS011;40965;52.368;9.712;2024-03-08T00:10:41;23.67;;;14.13;;
55067;SDS011;40965;52.368;9.712;2024-03-08T00:13:08;23.52;;;12.48;;
55067;SDS011;40965;52.368;9.712;2024-03-08T00:15:35;24.10;;;14.45;;
55067;SDS011;40965;52.368;9.712;2024-03-08T00:18:01;30.40;;;15.45;;
55067;SDS011;40965;52.368;9.712;2024-03-08T00:20:37;22.45;;;13.30;;
55067;SDS011;40965;52.368;9.712;2024-03-08T00:23:04;25.85;;;13.40;;
55067;SDS011;40965;52.368;9.712;2024-03-08T00:25:33;23.45;;;13.23;;
55067;SDS011;40965;52.368;9.712;2024-03-08T00:28:06;22.52;;;13.32;;
55067;SDS011;40965;52.368;9.712;2024-03-08T00:30:36;24.45;;;14.23;;
55067;SDS011;40965;52.368;9.712;2024-03-08T00:33:06;25.20;;;13.60;;
55067;SDS011;40965;52.368;9.712;2024-03-08T00:35:38;28.15;;;14.48;;
55067;SDS011;40965;52.368;9.712;2024-03-08T00:38:05;21.77;;;13.25;;
55067;SDS011;40965;52.368;9.712;2024-03-08T00:40:32;27.52;;;14.93;;
55067;SDS011;40965;52.368;9.712;2024-03-08T00:42:59;28.58;;;14.65;;
55067;SDS011;40965;52.368;9.712;2024-03-08T00:45:31;24.27;;;14.18;;
55067;SDS011;40965;52.368;9.712;2024-03-08T00:47:58;29.38;;;15.02;;
55067;SDS011;40965;52.368;9.712;2024-03-08T00:50:25;25.55;;;14.15;;
55067;SDS011;40965;52.368;9.712;2024-03-08T00:52:52;27.77;;;16.10;;
55067;SDS011;40965;52.368;9.712;2024-03-08T00:55:19;33.80;;;15.40;;
55067;SDS011;40965;52.368;9.712;2024-03-08T00:57:46;30.25;;;13.65;;
55067;SDS011;40965;52.368;9.712;2024-03-08T01:00:13;23.30;;;14.70;;
55067;SDS011;40965;52.368;9.712;2024-03-08T01:02:40;29.60;;;14.70;;
55067;SDS011;40965;52.368;9.712;2024-03-08T01:05:10;26.63;;;14.60;;
55067;SDS011;40965;52.368;9.712;2024-03-08T01:07:40;23.65;;;14.05;;
55067;SDS011;40965;52.368;9.712;2024-03-08T01:10:11;28.77;;;15.45;;
55067;SDS011;40965;52.368;9.712;2024-03-08T01:12:38;21.90;;;14.02;;
55067;SDS011;40965;52.368;9.712;2024-03-08T01:15:08;28.88;;;15.30;;
55067;SDS011;40965;52.368;9.712;2024-03-08T01:17:39;26.23;;;13.27;;
55067;SDS011;40965;52.368;9.712;2024-03-08T01:20:09;28.50;;;14.73;;
55067;SDS011;40965;52.368;9.712;2024-03-08T01:22:43;25.50;;;15.57;;
55067;SDS011;40965;52.368;9.712;2024-03-08T01:25:16;26.67;;;14.98;;
55067;SDS011;40965;52.368;9.712;2024-03-08T01:27:43;28.17;;;14.27;;
55067;SDS011;40965;52.368;9.712;2024-03-08T01:30:12;27.70;;;13.93;;
55067;SDS011;40965;52.368;9.712;2024-03-08T01:32:45;28.60;;;16.02;;
55067;SDS011;40965;52.368;9.712;2024-03-08T01:35:12;28.25;;;15.00;;
55067;SDS011;40965;52.368;9.712;2024-03-08T01:37:43;30.13;;;15.55;;
55067;SDS011;40965;52.368;9.712;2024-03-08T01:40:12;30.13;;;16.50;;
55067;SDS011;40965;52.368;9.712;2024-03-08T01:42:39;32.20;;;15.95;;
55067;SDS011;40965;52.368;9.712;2024-03-08T01:45:08;31.42;;;15.95;;
55067;SDS011;40965;52.368;9.712;2024-03-08T01:47:36;36.22;;;14.80;;
55067;SDS011;40965;52.368;9.712;2024-03-08T01:50:03;26.50;;;15.20;;
55067;SDS011;40965;52.368;9.712;2024-03-08T01:52:32;29.55;;;14.43;;
55067;SDS011;40965;52.368;9.712;2024-03-08T01:55:00;24.20;;;14.40;;
55067;SDS011;40965;52.368;9.712;2024-03-08T01:57:40;26.25;;;14.70;;
55067;SDS011;40965;52.368;9.712;2024-03-08T02:00:10;35.17;;;15.90;;
55067;SDS011;40965;52.368;9.712;2024-03-08T02:02:48;25.85;;;14.10;;
55067;SDS011;40965;52.368;9.712;2024-03-08T02:05:17;36.33;;;14.70;;
55067;SDS011;40965;52.368;9.712;2024-03-08T02:07:44;26.08;;;15.20;;
55067;SDS011;40965;52.368;9.712;2024-03-08T02:10:10;29.48;;;15.63;;
55067;SDS011;40965;52.368;9.712;2024-03-08T02:12:38;28.45;;;16.38;;
55067;SDS011;40965;52.368;9.712;2024-03-08T02:15:06;31.70;;;16.02;;
55067;SDS011;40965;52.368;9.712;2024-03-08T02:17:36;24.88;;;14.50;;
55067;SDS011;40965;52.368;9.712;2024-03-08T02:20:12;34.03;;;15.90;;
55067;SDS011;40965;52.368;9.712;2024-03-08T02:22:39;27.52;;;14.75;;
55067;SDS011;40965;52.368;9.712;2024-03-08T02:25:10;33.53;;;16.33;;
55067;SDS011;40965;52.368;9.712;2024-03-08T02:28:16;26.10;;;13.85;;
55067;SDS011;40965;52.368;9.712;2024-03-08T02:31:33;27.15;;;14.20;;
55067;SDS011;40965;52.368;9.712;2024-03-08T02:34:15;29.15;;;15.27;;
55067;SDS011;40965;52.368;9.712;2024-03-08T02:36:58;29.80;;;14.40;;
55067;SDS011;40965;52.368;9.712;2024-03-08T02:39:44;28.70;;;15.07;;
55067;SDS011;40965;52.368;9.712;2024-03-08T02:44:51;29.00;;;15.85;;
55067;SDS011;40965;52.368;9.712;2024-03-08T02:47:18;27.75;;;14.05;;
55067;SDS011;40965;52.368;9.712;2024-03-08T02:49:45;26.15;;;14.35;;
55067;SDS011;40965;52.368;9.712;2024-03-08T02:52:12;28.92;;;15.00;;
55067;SDS011;40965;52.368;9.712;2024-03-08T02:54:38;28.27;;;15.77;;
55067;SDS011;40965;52.368;9.712;2024-03-08T02:57:05;31.77;;;15.90;;
55067;SDS011;40965;52.368;9.712;2024-03-08T02:59:35;31.88;;;15.90;;
55067;SDS011;40965;52.368;9.712;2024-03-08T03:02:08;25.70;;;15.43;;
55067;SDS011;40965;52.368;9.712;2024-03-08T03:04:35;23.98;;;14.98;;
55067;SDS011;40965;52.368;9.712;2024-03-08T03:07:03;32.95;;;15.27;;
55067;SDS011;40965;52.368;9.712;2024-03-08T03:09:30;31.70;;;15.93;;
55067;SDS011;40965;52.368;9.712;2024-03-08T03:12:01;31.02;;;15.82;;
55067;SDS011;40965;52.368;9.712;2024-03-08T03:14:28;28.13;;;14.57;;
55067;SDS011;40965;52.368;9.712;2024-03-08T03:16:55;29.80;;;15.15;;
55067;SDS011;40965;52.368;9.712;2024-03-08T03:19:22;29.83;;;16.75;;
55067;SDS011;40965;52.368;9.712;2024-03-08T03:21:48;31.35;;;17.42;;
55067;SDS011;40965;52.368;9.712;2024-03-08T03:24:16;33.08;;;15.23;;
55067;SDS011;40965;52.368;9.712;2024-03-08T03:26:43;28.42;;;15.32;;
55067;SDS011;40965;52.368;9.712;2024-03-08T03:29:11;26.77;;;14.57;;
55067;SDS011;40965;52.368;9.712;2024-03-08T03:31:37;30.75;;;14.57;;
55067;SDS011;40965;52.368;9.712;2024-03-08T03:34:05;30.02;;;14.90;;
55067;SDS011;40965;52.368;9.712;2024-03-08T03:36:41;25.50;;;14.45;;
55067;SDS011;40965;52.368;9.712;2024-03-08T03:39:12;31.77;;;16.10;;
55067;SDS011;40965;52.368;9.712;2024-03-08T03:41:41;26.75;;;14.50;;
55067;SDS011;40965;52.368;9.712;2024-03-08T03:44:16;34.45;;;16.42;;
55067;SDS011;40965;52.368;9.712;2024-03-08T03:46:43;27.17;;;15.63;;
55067;SDS011;40965;52.368;9.712;2024-03-08T03:49:11;30.85;;;15.18;;
55067;SDS011;40965;52.368;9.712;2024-03-08T03:51:38;29.40;;;15.40;;
55067;SDS011;40965;52.368;9.712;2024-03-08T03:54:05;25.17;;;15.10;;
55067;SDS011;40965;52.368;9.712;2024-03-08T03:56:35;30.58;;;15.50;;
55067;SDS011;40965;52.368;9.712;2024-03-08T03:59:02;37.08;;;16.02;;
55067;SDS011;40965;52.368;9.712;2024-03-08T04:01:29;32.08;;;14.48;;
55067;SDS011;40965;52.368;9.712;2024-03-08T04:03:56;28.08;;;15.65;;
55067;SDS011;40965;52.368;9.712;2024-03-08T04:06:22;27.58;;;15.10;;
55067;SDS011;40965;52.368;9.712;2024-03-08T04:08:49;35.20;;;16.77;;
55067;SDS011;40965;52.368;9.712;2024-03-08T04:11:19;32.90;;;16.50;;
55067;SDS011;40965;52.368;9.712;2024-03-08T04:13:46;30.58;;;15.55;;
55067;SDS011;40965;52.368;9.712;2024-03-08T04:16:14;26.48;;;14.95;;
55067;SDS011;40965;52.368;9.712;2024-03-08T04:18:44;34.65;;;16.38;;
55067;SDS011;40965;52.368;9.712;2024-03-08T04:21:13;40.38;;;17.00;;
55067;SDS011;40965;52.368;9.712;2024-03-08T04:23:44;37.53;;;18.52;;
55067;SDS011;40965;52.368;9.712;2024-03-08T04:26:11;30.70;;;16.90;;
55067;SDS011;40965;52.368;9.712;2024-03-08T04:28:40;31.60;;;17.00;;
55067;SDS011;40965;52.368;9.712;2024-03-08T04:31:07;32.83;;;17.30;;
55067;SDS011;40965;52.368;9.712;2024-03-08T04:33:34;31.70;;;15.80;;
55067;SDS011;40965;52.368;9.712;2024-03-08T04:36:01;31.00;;;16.13;;
55067;SDS011;40965;52.368;9.712;2024-03-08T04:38:29;34.40;;;16.50;;
55067;SDS011;40965;52.368;9.712;2024-03-08T04:40:57;29.98;;;16.55;;
55067;SDS011;40965;52.368;9.712;2024-03-08T04:43:24;27.90;;;15.38;;
55067;SDS011;40965;52.368;9.712;2024-03-08T04:45:52;33.05;;;17.02;;
55067;SDS011;40965;52.368;9.712;2024-03-08T04:48:19;35.30;;;16.17;;
55067;SDS011;40965;52.368;9.712;2024-03-08T04:50:46;35.10;;;16.77;;
55067;SDS011;40965;52.368;9.712;2024-03-08T04:53:13;33.60;;;16.60;;
55067;SDS011;40965;52.368;9.712;2024-03-08T04:55:40;34.65;;;16.42;;
55067;SDS011;40965;52.368;9.712;2024-03-08T04:58:06;33.30;;;15.65;;
55067;SDS011;40965;52.368;9.712;2024-03-08T05:00:33;29.15;;;15.88;;
55067;SDS011;40965;52.368;9.712;2024-03-08T05:03:00;33.63;;;17.10;;
55067;SDS011;40965;52.368;9.712;2024-03-08T05:05:30;34.47;;;16.20;;
55067;SDS011;40965;52.368;9.712;2024-03-08T05:07:58;29.60;;;17.52;;
55067;SDS011;40965;52.368;9.712;2024-03-08T05:10:27;33.88;;;16.17;;
55067;SDS011;40965;52.368;9.712;2024-03-08T05:12:54;37.25;;;17.10;;
55067;SDS011;40965;52.368;9.712;2024-03-08T05:15:21;37.50;;;17.05;;
55067;SDS011;40965;52.368;9.712;2024-03-08T05:17:48;33.92;;;16.95;;
55067;SDS011;40965;52.368;9.712;2024-03-08T05:20:15;31.40;;;16.23;;
55067;SDS011;40965;52.368;9.712;2024-03-08T05:22:42;31.90;;;17.15;;
55067;SDS011;40965;52.368;9.712;2024-03-08T05:25:09;36.78;;;17.65;;
55067;SDS011;40965;52.368;9.712;2024-03-08T05:27:42;33.03;;;18.23;;
55067;SDS011;40965;52.368;9.712;2024-03-08T05:30:09;34.38;;;18.80;;
55067;SDS011;40965;52.368;9.712;2024-03-08T05:32:40;34.08;;;16.15;;
55067;SDS011;40965;52.368;9.712;2024-03-08T05:35:10;34.38;;;17.25;;
55067;SDS011;40965;52.368;9.712;2024-03-08T05:40:10;39.35;;;17.15;;
55067;SDS011;40965;52.368;9.712;2024-03-08T05:42:42;32.95;;;18.42;;
55067;SDS011;40965;52.368;9.712;2024-03-08T05:45:09;32.30;;;17.95;;
55067;SDS011;40965;52.368;9.712;2024-03-08T05:47:43;38.20;;;17.65;;
55067;SDS011;40965;52.368;9.712;2024-03-08T05:50:09;33.47;;;18.02;;
55067;SDS011;40965;52.368;9.712;2024-03-08T05:52:41;30.95;;;17.05;;
55067;SDS011;40965;52.368;9.712;2024-03-08T05:55:08;32.15;;;18.73;;
55067;SDS011;40965;52.368;9.712;2024-03-08T05:57:35;28.60;;;17.65;;
55067;SDS011;40965;52.368;9.712;2024-03-08T06:00:07;40.55;;;18.30;;
55067;SDS011;40965;52.368;9.712;2024-03-08T06:02:37;28.80;;;17.75;;
55067;SDS011;40965;52.368;9.712;2024-03-08T06:05:15;41.58;;;21.90;;
55067;SDS011;40965;52.368;9.712;2024-03-08T06:07:44;37.83;;;18.10;;
55067;SDS011;40965;52.368;9.712;2024-03-08T06:10:13;34.08;;;17.52;;
55067;SDS011;40965;52.368;9.712;2024-03-08T06:12:42;31.00;;;17.85;;
55067;SDS011;40965;52.368;9.712;2024-03-08T06:15:10;34.13;;;19.67;;
55067;SDS011;40965;52.368;9.712;2024-03-08T06:17:39;31.75;;;18.25;;
55067;SDS011;40965;52.368;9.712;2024-03-08T06:20:07;34.45;;;18.27;;
55067;SDS011;40965;52.368;9.712;2024-03-08T06:22:40;33.45;;;17.85;;
55067;SDS011;40965;52.368;9.712;2024-03-08T06:25:12;35.13;;;18.90;;
55067;SDS011;40965;52.368;9.712;2024-03-08T06:27:47;33.08;;;19.15;;
55067;SDS011;40965;52.368;9.712;2024-03-08T06:30:18;36.33;;;17.60;;
55067;SDS011;40965;52.368;9.712;2024-03-08T06:32:47;40.05;;;19.50;;
55067;SDS011;40965;52.368;9.712;2024-03-08T06:35:14;39.17;;;19.42;;
55067;SDS011;40965;52.368;9.712;2024-03-08T06:37:45;42.38;;;19.83;;
55067;SDS011;40965;52.368;9.712;2024-03-08T06:40:22;44.55;;;19.17;;
55067;SDS011;40965;52.368;9.712;2024-03-08T06:42:51;33.47;;;18.98;;
55067;SDS011;40965;52.368;9.712;2024-03-08T06:45:18;28.98;;;17.33;;
55067;SDS011;40965;52.368;9.712;2024-03-08T06:47:46;37.72;;;19.23;;
55067;SDS011;40965;52.368;9.712;2024-03-08T06:50:13;35.88;;;19.42;;
55067;SDS011;40965;52.368;9.712;2024-03-08T06:52:52;37.00;;;19.38;;
55067;SDS011;40965;52.368;9.712;2024-03-08T06:55:20;41.42;;;18.38;;
55067;SDS011;40965;52.368;9.712;2024-03-08T06:57:47;44.53;;;21.15;;
55067;SDS011;40965;52.368;9.712;2024-03-08T07:00:15;36.85;;;18.42;;
55067;SDS011;40965;52.368;9.712;2024-03-08T07:02:54;43.28;;;19.17;;
55067;SDS011;40965;52.368;9.712;2024-03-08T07:05:34;37.22;;;19.50;;
55067;SDS011;40965;52.368;9.712;2024-03-08T07:08:04;27.63;;;17.70;;
55067;SDS011;40965;52.368;9.712;2024-03-08T07:10:38;32.40;;;15.57;;
55067;SDS011;40965;52.368;9.712;2024-03-08T07:13:07;33.38;;;16.95;;
55067;SDS011;40965;52.368;9.712;2024-03-08T07:15:38;31.17;;;20.48;;
55067;SDS011;40965;52.368;9.712;2024-03-08T07:18:06;30.58;;;16.80;;
55067;SDS011;40965;52.368;9.712;2024-03-08T07:20:34;33.03;;;18.35;;
55067;SDS011;40965;52.368;9.712;2024-03-08T07:23:02;30.77;;;17.55;;
55067;SDS011;40965;52.368;9.712;2024-03-08T07:25:33;24.77;;;15.75;;
55067;SDS011;40965;52.368;9.712;2024-03-08T07:28:01;32.53;;;17.33;;
55067;SDS011;40965;52.368;9.712;2024-03-08T07:30:27;29.58;;;16.48;;
55067;SDS011;40965;52.368;9.712;2024-03-08T07:33:11;32.38;;;17.27;;
55067;SDS011;40965;52.368;9.712;2024-03-08T07:35:42;28.70;;;17.77;;
55067;SDS011;40965;52.368;9.712;2024-03-08T07:38:10;24.60;;;16.33;;
55067;SDS011;40965;52.368;9.712;2024-03-08T07:40:40;34.63;;;17.95;;
55067;SDS011;40965;52.368;9.712;2024-03-08T07:43:14;30.40;;;17.08;;
55067;SDS011;40965;52.368;9.712;2024-03-08T07:45:42;25.17;;;17.35;;
55067;SDS011;40965;52.368;9.712;2024-03-08T07:48:08;24.80;;;16.40;;
55067;SDS011;40965;52.368;9.712;2024-03-08T07:50:36;26.77;;;16.00;;
55067;SDS011;40965;52.368;9.712;2024-03-08T07:53:06;24.90;;;16.08;;
55067;SDS011;40965;52.368;9.712;2024-03-08T07:55:34;28.15;;;17.00;;
55067;SDS011;40965;52.368;9.712;2024-03-08T07:58:03;29.33;;;16.52;;
55067;SDS011;40965;52.368;9.712;2024-03-08T08:00:31;28.23;;;16.80;;
55067;SDS011;40965;52.368;9.712;2024-03-08T08:02:58;27.75;;;16.95;;
55067;SDS011;40965;52.368;9.712;2024-03-08T08:05:26;35.22;;;17.80;;
55067;SDS011;40965;52.368;9.712;2024-03-08T08:07:58;27.05;;;17.58;;
55067;SDS011;40965;52.368;9.712;2024-03-08T08:10:28;28.33;;;16.92;;
55067;SDS011;40965;52.368;9.712;2024-03-08T08:12:55;27.63;;;16.90;;
55067;SDS011;40965;52.368;9.712;2024-03-08T08:15:26;29.88;;;17.27;;
55067;SDS011;40965;52.368;9.712;2024-03-08T08:17:55;29.15;;;16.52;;
55067;SDS011;40965;52.368;9.712;2024-03-08T08:20:22;32.03;;;18.40;;
55067;SDS011;40965;52.368;9.712;2024-03-08T08:22:51;31.95;;;18.42;;
55067;SDS011;40965;52.368;9.712;2024-03-08T08:25:20;32.63;;;18.88;;
55067;SDS011;40965;52.368;9.712;2024-03-08T08:27:54;31.75;;;17.50;;
55067;SDS011;40965;52.368;9.712;2024-03-08T08:30:23;34.95;;;19.27;;
55067;SDS011;40965;52.368;9.712;2024-03-08T08:32:49;35.80;;;20.05;;
55067;SDS011;40965;52.368;9.712;2024-03-08T08:35:16;32.65;;;18.73;;
55067;SDS011;40965;52.368;9.712;2024-03-08T08:37:45;35.03;;;18.75;;
55067;SDS011;40965;52.368;9.712;2024-03-08T08:40:19;29.50;;;18.25;;
55067;SDS011;40965;52.368;9.712;2024-03-08T08:42:52;36.45;;;17.55;;
55067;SDS011;40965;52.368;9.712;2024-03-08T08:45:22;33.03;;;19.55;;
55067;SDS011;40965;52.368;9.712;2024-03-08T08:47:49;32.15;;;18.23;;
55067;SDS011;40965;52.368;9.712;2024-03-08T08:50:17;37.95;;;19.08;;
55067;SDS011;40965;52.368;9.712;2024-03-08T08:52:48;38.15;;;20.85;;
55067;SDS011;40965;52.368;9.712;2024-03-08T08:55:18;32.75;;;18.52;;
55067;SDS011;40965;52.368;9.712;2024-03-08T08:57:46;34.72;;;18.67;;
55067;SDS011;40965;52.368;9.712;2024-03-08T09:00:21;34.40;;;20.90;;
55067;SDS011;40965;52.368;9.712;2024-03-08T09:02:52;33.65;;;19.67;;
55067;SDS011;40965;52.368;9.712;2024-03-08T09:05:23;35.08;;;19.13;;
55067;SDS011;40965;52.368;9.712;2024-03-08T09:07:49;32.08;;;19.30;;
55067;SDS011;40965;52.368;9.712;2024-03-08T09:10:20;33.85;;;18.70;;
55067;SDS011;40965;52.368;9.712;2024-03-08T09:12:59;35.55;;;19.40;;
55067;SDS011;40965;52.368;9.712;2024-03-08T09:15:29;33.15;;;20.42;;
55067;SDS011;40965;52.368;9.712;2024-03-08T09:18:00;28.50;;;18.00;;
55067;SDS011;40965;52.368;9.712;2024-03-08T09:20:30;29.98;;;20.63;;
55067;SDS011;40965;52.368;9.712;2024-03-08T09:23:19;29.13;;;18.25;;
55067;SDS011;40965;52.368;9.712;2024-03-08T09:26:04;32.58;;;18.25;;
55067;SDS011;40965;52.368;9.712;2024-03-08T09:28:38;27.30;;;17.92;;
55067;SDS011;40965;52.368;9.712;2024-03-08T09:31:11;36.90;;;22.08;;
55067;SDS011;40965;52.368;9.712;2024-03-08T09:33:57;30.85;;;18.98;;
55067;SDS011;40965;52.368;9.712;2024-03-08T09:36:24;31.63;;;19.73;;
55067;SDS011;40965;52.368;9.712;2024-03-08T09:38:52;32.65;;;18.05;;
55067;SDS011;40965;52.368;9.712;2024-03-08T09:41:25;34.80;;;20.58;;
55067;SDS011;40965;52.368;9.712;2024-03-08T09:44:00;33.33;;;17.98;;
55067;SDS011;40965;52.368;9.712;2024-03-08T09:46:29;30.92;;;18.13;;
55067;SDS011;40965;52.368;9.712;2024-03-08T09:48:56;31.55;;;18.98;;
55067;SDS011;40965;52.368;9.712;2024-03-08T09:51:27;29.27;;;17.98;;
55067;SDS011;40965;52.368;9.712;2024-03-08T09:54:02;31.17;;;18.30;;
55067;SDS011;40965;52.368;9.712;2024-03-08T09:56:33;31.13;;;17.73;;
55067;SDS011;40965;52.368;9.712;2024-03-08T09:59:12;28.63;;;18.98;;
55067;SDS011;40965;52.368;9.712;2024-03-08T10:02:12;30.30;;;17.42;;
55067;SDS011;40965;52.368;9.712;2024-03-08T10:04:48;31.25;;;18.92;;
55067;SDS011;40965;52.368;9.712;2024-03-08T10:07:21;30.25;;;17.67;;
55067;SDS011;40965;52.368;9.712;2024-03-08T10:09:51;26.48;;;17.52;;
55067;SDS011;40965;52.368;9.712;2024-03-08T10:12:21;31.38;;;17.83;;
55067;SDS011;40965;52.368;9.712;2024-03-08T10:14:56;30.75;;;17.88;;
55067;SDS011;40965;52.368;9.712;2024-03-08T10:17:57;28.80;;;18.65;;
55067;SDS011;40965;52.368;9.712;2024-03-08T10:20:33;28.10;;;17.55;;
55067;SDS011;40965;52.368;9.712;2024-03-08T10:23:06;24.92;;;18.05;;
55067;SDS011;40965;52.368;9.712;2024-03-08T10:25:35;28.52;;;18.42;;
55067;SDS011;40965;52.368;9.712;2024-03-08T10:28:05;28.98;;;18.50;;
55067;SDS011;40965;52.368;9.712;2024-03-08T10:30:36;26.55;;;18.25;;
55067;SDS011;40965;52.368;9.712;2024-03-08T10:33:05;28.70;;;18.02;;
55067;SDS011;40965;52.368;9.712;2024-03-08T10:35:35;25.38;;;17.33;;
55067;SDS011;40965;52.368;9.712;2024-03-08T10:38:19;28.25;;;19.27;;
55067;SDS011;40965;52.368;9.712;2024-03-08T10:41:15;28.17;;;17.52;;
55067;SDS011;40965;52.368;9.712;2024-03-08T10:50:19;29.75;;;18.23;;
55067;SDS011;40965;52.368;9.712;2024-03-08T10:53:17;27.90;;;18.17;;
55067;SDS011;40965;52.368;9.712;2024-03-08T10:56:18;29.05;;;18.33;;
55067;SDS011;40965;52.368;9.712;2024-03-08T10:59:00;26.17;;;17.87;;
55067;SDS011;40965;52.368;9.712;2024-03-08T11:01:42;30.60;;;18.58;;
55067;SDS011;40965;52.368;9.712;2024-03-08T11:04:11;28.23;;;18.48;;
55067;SDS011;40965;52.368;9.712;2024-03-08T11:09:08;28.98;;;17.23;;
55067;SDS011;40965;52.368;9.712;2024-03-08T11:14:56;25.92;;;17.38;;
55067;SDS011;40965;52.368;9.712;2024-03-08T11:17:47;28.73;;;18.08;;
55067;SDS011;40965;52.368;9.712;2024-03-08T11:20:20;25.05;;;17.77;;
55067;SDS011;40965;52.368;9.712;2024-03-08T11:33:56;24.50;;;17.92;;
55067;SDS011;40965;52.368;9.712;2024-03-08T11:36:25;31.35;;;19.98;;
55067;SDS011;40965;52.368;9.712;2024-03-08T11:39:04;25.98;;;18.17;;
55067;SDS011;40965;52.368;9.712;2024-03-08T11:41:40;27.60;;;17.45;;
55067;SDS011;40965;52.368;9.712;2024-03-08T11:44:11;27.08;;;18.33;;
55067;SDS011;40965;52.368;9.712;2024-03-08T11:46:41;27.67;;;18.75;;
55067;SDS011;40965;52.368;9.712;2024-03-08T11:49:13;27.35;;;17.05;;
55067;SDS011;40965;52.368;9.712;2024-03-08T11:51:56;26.95;;;17.42;;
55067;SDS011;40965;52.368;9.712;2024-03-08T11:54:29;24.35;;;15.45;;
55067;SDS011;40965;52.368;9.712;2024-03-08T11:57:03;24.05;;;16.15;;
55067;SDS011;40965;52.368;9.712;2024-03-08T11:59:35;26.80;;;16.90;;
55067;SDS011;40965;52.368;9.712;2024-03-08T12:02:39;24.42;;;17.27;;
55067;SDS011;40965;52.368;9.712;2024-03-08T12:05:41;24.90;;;17.25;;
55067;SDS011;40965;52.368;9.712;2024-03-08T12:08:42;25.52;;;18.23;;
55067;SDS011;40965;52.368;9.712;2024-03-08T12:11:16;24.65;;;17.50;;
55067;SDS011;40965;52.368;9.712;2024-03-08T12:13:52;26.90;;;17.80;;
55067;SDS011;40965;52.368;9.712;2024-03-08T12:16:31;25.67;;;18.83;;
55067;SDS011;40965;52.368;9.712;2024-03-08T12:19:14;21.30;;;16.25;;
55067;SDS011;40965;52.368;9.712;2024-03-08T12:21:51;23.80;;;16.05;;
55067;SDS011;40965;52.368;9.712;2024-03-08T12:24:18;24.33;;;15.18;;
55067;SDS011;40965;52.368;9.712;2024-03-08T12:29:37;23.40;;;14.98;;
55067;SDS011;40965;52.368;9.712;2024-03-08T12:32:09;21.30;;;14.43;;
55067;SDS011;40965;52.368;9.712;2024-03-08T12:34:51;18.40;;;14.65;;
55067;SDS011;40965;52.368;9.712;2024-03-08T12:37:25;22.63;;;16.08;;
55067;SDS011;40965;52.368;9.712;2024-03-08T12:40:14;22.15;;;16.15;;
55067;SDS011;40965;52.368;9.712;2024-03-08T12:42:47;22.83;;;16.05;;
55067;SDS011;40965;52.368;9.712;2024-03-08T12:45:25;24.02;;;15.55;;
55067;SDS011;40965;52.368;9.712;2024-03-08T12:47:58;24.58;;;16.38;;
55067;SDS011;40965;52.368;9.712;2024-03-08T12:50:32;22.35;;;16.13;;
55067;SDS011;40965;52.368;9.712;2024-03-08T12:53:10;24.15;;;16.45;;
55067;SDS011;40965;52.368;9.712;2024-03-08T12:55:54;21.63;;;15.48;;
55067;SDS011;40965;52.368;9.712;2024-03-08T12:58:22;23.48;;;15.80;;
55067;SDS011;40965;52.368;9.712;2024-03-08T13:00:49;16.83;;;13.57;;
55067;SDS011;40965;52.368;9.712;2024-03-08T13:03:17;20.65;;;15.70;;
55067;SDS011;40965;52.368;9.712;2024-03-08T13:05:48;22.35;;;16.17;;
55067;SDS011;40965;52.368;9.712;2024-03-08T13:08:15;21.98;;;16.70;;
55067;SDS011;40965;52.368;9.712;2024-03-08T13:10:45;24.58;;;16.45;;
55067;SDS011;40965;52.368;9.712;2024-03-08T13:13:16;24.50;;;18.23;;
55067;SDS011;40965;52.368;9.712;2024-03-08T13:15:51;27.90;;;17.70;;
55067;SDS011;40965;52.368;9.712;2024-03-08T13:18:25;28.90;;;20.33;;
55067;SDS011;40965;52.368;9.712;2024-03-08T13:21:00;24.77;;;18.63;;
55067;SDS011;40965;52.368;9.712;2024-03-08T13:23:31;27.23;;;19.70;;
55067;SDS011;40965;52.368;9.712;2024-03-08T13:26:08;22.42;;;18.23;;
55067;SDS011;40965;52.368;9.712;2024-03-08T13:28:44;25.10;;;18.23;;
55067;SDS011;40965;52.368;9.712;2024-03-08T13:31:32;24.77;;;18.65;;
55067;SDS011;40965;52.368;9.712;2024-03-08T13:34:01;23.25;;;17.77;;
55067;SDS011;40965;52.368;9.712;2024-03-08T13:36:30;27.38;;;18.60;;
55067;SDS011;40965;52.368;9.712;2024-03-08T13:39:07;22.40;;;17.80;;
55067;SDS011;40965;52.368;9.712;2024-03-08T13:41:41;29.00;;;19.00;;
55067;SDS011;40965;52.368;9.712;2024-03-08T13:44:13;22.98;;;17.42;;
55067;SDS011;40965;52.368;9.712;2024-03-08T13:46:40;24.23;;;17.20;;
55067;SDS011;40965;52.368;9.712;2024-03-08T13:49:07;25.98;;;17.70;;
55067;SDS011;40965;52.368;9.712;2024-03-08T13:51:39;21.60;;;17.55;;
55067;SDS011;40965;52.368;9.712;2024-03-08T13:54:06;20.15;;;17.08;;
55067;SDS011;40965;52.368;9.712;2024-03-08T13:56:36;23.48;;;17.40;;
55067;SDS011;40965;52.368;9.712;2024-03-08T13:59:09;22.23;;;17.20;;
55067;SDS011;40965;52.368;9.712;2024-03-08T14:01:40;27.83;;;17.63;;
55067;SDS011;40965;52.368;9.712;2024-03-08T14:04:08;22.98;;;17.20;;
55067;SDS011;40965;52.368;9.712;2024-03-08T14:06:35;25.10;;;17.90;;
55067;SDS011;40965;52.368;9.712;2024-03-08T14:09:02;23.77;;;16.98;;
55067;SDS011;40965;52.368;9.712;2024-03-08T14:11:28;21.75;;;16.58;;
55067;SDS011;40965;52.368;9.712;2024-03-08T14:13:55;21.80;;;16.95;;
55067;SDS011;40965;52.368;9.712;2024-03-08T14:16:22;22.60;;;16.95;;
55067;SDS011;40965;52.368;9.712;2024-03-08T14:18:51;21.02;;;17.15;;
55067;SDS011;40965;52.368;9.712;2024-03-08T14:21:17;23.02;;;17.60;;
55067;SDS011;40965;52.368;9.712;2024-03-08T14:23:44;22.75;;;17.23;;
55067;SDS011;40965;52.368;9.712;2024-03-08T14:26:16;22.08;;;17.20;;
55067;SDS011;40965;52.368;9.712;2024-03-08T14:28:42;20.17;;;15.75;;
55067;SDS011;40965;52.368;9.712;2024-03-08T14:31:16;18.85;;;15.55;;
55067;SDS011;40965;52.368;9.712;2024-03-08T14:33:44;19.30;;;15.60;;
55067;SDS011;40965;52.368;9.712;2024-03-08T14:36:14;16.73;;;14.70;;
55067;SDS011;40965;52.368;9.712;2024-03-08T14:38:48;18.50;;;15.20;;
55067;SDS011;40965;52.368;9.712;2024-03-08T14:41:15;19.38;;;14.32;;
55067;SDS011;40965;52.368;9.712;2024-03-08T14:43:42;21.08;;;14.88;;
55067;SDS011;40965;52.368;9.712;2024-03-08T14:46:11;19.42;;;14.10;;
55067;SDS011;40965;52.368;9.712;2024-03-08T14:48:42;20.35;;;15.10;;
55067;SDS011;40965;52.368;9.712;2024-03-08T14:51:17;19.40;;;15.15;;
55067;SDS011;40965;52.368;9.712;2024-03-08T14:53:46;20.55;;;14.23;;
55067;SDS011;40965;52.368;9.712;2024-03-08T14:56:14;18.77;;;15.45;;
55067;SDS011;40965;52.368;9.712;2024-03-08T14:58:43;18.45;;;14.80;;
55067;SDS011;40965;52.368;9.712;2024-03-08T15:01:15;20.50;;;14.90;;
55067;SDS011;40965;52.368;9.712;2024-03-08T15:03:47;17.05;;;14.43;;
55067;SDS011;40965;52.368;9.712;2024-03-08T15:06:17;17.52;;;14.30;;
55067;SDS011;40965;52.368;9.712;2024-03-08T15:08:46;17.42;;;14.85;;
55067;SDS011;40965;52.368;9.712;2024-03-08T15:11:13;22.27;;;15.90;;
55067;SDS011;40965;52.368;9.712;2024-03-08T15:13:46;20.93;;;16.20;;
55067;SDS011;40965;52.368;9.712;2024-03-08T15:16:17;20.83;;;15.50;;